Time;durP1;ratioP1;P1;durP2;ratioP2;P2;SDS_P1;SDS_P2;PMS_P1;PMS_P2;Temp;Humidity;BMP_temperature;BMP_pressure;BME280_temperature;BME280_humidity;BME280_pressure;Samples;Min_cycle;Max_cycle;Signal;HPM_P1;HPM_P2
2023/01/24 00:01:54;;;;;;;6.40;5.80;;;;;;;;;;5110982;28;20221;-90
2023/01/24 00:04:23;;;;;;;2.33;2.23;;;;;;;;;;5110932;28;20189;-90
2023/01/24 00:06:52;;;;;;;4.53;4.00;;;;;;;;;;5111252;28;20234;-90
2023/01/24 00:09:20;;;;;;;7.07;5.80;;;;;;;;;;5094964;28;20216;-89
2023/01/24 00:11:48;;;;;;;10.10;8.80;;;;;;;;;;5094983;28;20193;-90
2023/01/24 00:14:17;;;;;;;7.33;4.77;;;;;;;;;;5076673;28;20223;-90
2023/01/24 00:16:45;;;;;;;14.70;10.03;;;;;;;;;;5094908;28;20193;-90
2023/01/24 00:19:13;;;;;;;12.53;8.57;;;;;;;;;;5076482;28;20235;-90
2023/01/24 00:21:43;;;;;;;13.03;10.63;;;;;;;;;;5110644;28;20245;-90
2023/01/24 00:24:11;;;;;;;11.53;9.37;;;;;;;;;;5076914;28;20224;-90
2023/01/24 00:26:40;;;;;;;14.30;9.27;;;;;;;;;;5094751;28;20204;-89
2023/01/24 00:29:08;;;;;;;7.80;6.60;;;;;;;;;;5076714;28;20287;-90
2023/01/24 00:31:37;;;;;;;8.17;6.10;;;;;;;;;;5110349;28;20200;-90
2023/01/24 00:34:05;;;;;;;7.07;6.33;;;;;;;;;;5110624;28;20207;-89
2023/01/24 00:36:33;;;;;;;7.73;6.17;;;;;;;;;;5076837;28;20228;-89
2023/01/24 00:39:03;;;;;;;13.67;8.33;;;;;;;;;;5110342;28;20263;-90
2023/01/24 00:41:32;;;;;;;12.67;8.33;;;;;;;;;;5076319;28;20221;-90
2023/01/24 00:44:00;;;;;;;15.53;7.27;;;;;;;;;;5076662;28;20199;-90
2023/01/24 00:46:31;;;;;;;13.13;8.40;;;;;;;;;;5076383;28;20254;-89
2023/01/24 00:49:00;;;;;;;17.27;12.27;;;;;;;;;;5077009;28;20207;-89
2023/01/24 00:51:29;;;;;;;11.13;6.77;;;;;;;;;;5094218;28;20227;-89
2023/01/24 00:57:22;;;;;;;2.17;1.97;;;;;;;;;;5075438;28;20188;-90
2023/01/24 00:59:50;;;;;;;7.37;6.13;;;;;;;;;;5109838;28;20204;-89
2023/01/24 01:02:18;;;;;;;11.03;7.77;;;;;;;;;;5094018;28;20306;-89
2023/01/24 01:04:47;;;;;;;6.43;4.63;;;;;;;;;;5109726;28;20292;-91
2023/01/24 01:07:15;;;;;;;7.63;4.87;;;;;;;;;;5110003;28;20223;-89
2023/01/24 01:09:44;;;;;;;5.07;3.27;;;;;;;;;;5076185;28;20208;-90
2023/01/24 01:12:12;;;;;;;3.70;3.53;;;;;;;;;;5110266;28;20196;-89
2023/01/24 01:14:42;;;;;;;10.37;6.73;;;;;;;;;;5109880;28;20201;-89
2023/01/24 01:17:10;;;;;;;12.50;8.80;;;;;;;;;;5110062;28;20192;-89
2023/01/24 01:19:39;;;;;;;13.43;10.47;;;;;;;;;;5109937;28;20232;-89
2023/01/24 01:22:07;;;;;;;9.60;7.97;;;;;;;;;;5093649;28;20212;-90
2023/01/24 01:24:36;;;;;;;11.03;8.20;;;;;;;;;;5109641;28;20253;-90
2023/01/24 01:27:04;;;;;;;14.33;8.23;;;;;;;;;;5075913;28;20211;-90
2023/01/24 01:29:34;;;;;;;8.50;6.53;;;;;;;;;;5093730;28;20197;-90
2023/01/24 01:32:04;;;;;;;8.27;6.93;;;;;;;;;;5076155;28;20235;-89
2023/01/24 01:34:32;;;;;;;12.63;8.10;;;;;;;;;;5109936;28;20295;-90
2023/01/24 01:37:01;;;;;;;3.13;2.90;;;;;;;;;;5076270;28;20205;-89
2023/01/24 01:39:29;;;;;;;12.90;7.67;;;;;;;;;;5075618;28;20220;-90
2023/01/24 01:41:58;;;;;;;14.60;10.10;;;;;;;;;;5093702;28;20246;-90
2023/01/24 01:44:40;;;;;;;10.70;6.67;;;;;;;;;;5075967;28;20193;-90
2023/01/24 01:47:17;;;;;;;9.40;6.70;;;;;;;;;;5076062;28;20269;-89
2023/01/24 01:49:48;;;;;;;10.23;7.60;;;;;;;;;;5076140;28;20256;-89
2023/01/24 01:52:17;;;;;;;2.63;2.50;;;;;;;;;;5076063;28;20197;-91
2023/01/24 01:54:46;;;;;;;10.30;7.43;;;;;;;;;;5109358;28;20262;-90
2023/01/24 01:57:16;;;;;;;7.03;6.30;;;;;;;;;;5075760;28;20303;-90
2023/01/24 01:59:46;;;;;;;12.10;8.23;;;;;;;;;;5109327;28;20226;-90
2023/01/24 02:02:16;;;;;;;6.77;5.13;;;;;;;;;;5093452;28;20306;-89
2023/01/24 02:04:47;;;;;;;8.47;6.53;;;;;;;;;;5109291;28;20209;-89
2023/01/24 02:07:20;;;;;;;10.33;6.53;;;;;;;;;;5093463;28;20251;-90
2023/01/24 02:09:49;;;;;;;10.10;7.50;;;;;;;;;;5109600;28;20200;-90
2023/01/24 02:12:20;;;;;;;5.07;4.13;;;;;;;;;;5094000;28;20197;-90
2023/01/24 02:17:36;;;;;;;9.17;7.60;;;;;;;;;;5078894;28;20227;-90
2023/01/24 02:20:11;;;;;;;8.00;5.57;;;;;;;;;;5112969;28;20259;-89
2023/01/24 02:22:45;;;;;;;9.30;6.77;;;;;;;;;;5079015;28;20257;-90
2023/01/24 02:25:17;;;;;;;12.43;6.03;;;;;;;;;;5097210;28;20192;-89
2023/01/24 02:27:48;;;;;;;9.50;8.33;;;;;;;;;;5096980;28;20200;-90
2023/01/24 02:30:16;;;;;;;6.63;4.90;;;;;;;;;;5112792;28;20241;-90
2023/01/24 02:32:44;;;;;;;10.17;6.23;;;;;;;;;;5079195;28;20206;-90
2023/01/24 02:35:23;;;;;;;6.77;4.17;;;;;;;;;;5078756;28;20204;-89
2023/01/24 02:37:52;;;;;;;12.60;7.90;;;;;;;;;;5112969;28;20302;-90
2023/01/24 02:40:20;;;;;;;13.23;8.90;;;;;;;;;;5078617;28;20193;-90
2023/01/24 02:42:51;;;;;;;1.70;1.63;;;;;;;;;;5112497;28;20250;-90
2023/01/24 02:45:22;;;;;;;5.10;4.63;;;;;;;;;;5112442;28;20205;-90
2023/01/24 02:47:52;;;;;;;2.07;1.93;;;;;;;;;;5096563;28;20232;-90
2023/01/24 02:50:21;;;;;;;3.00;2.80;;;;;;;;;;5078419;28;20189;-90
2023/01/24 02:58:05;;;;;;;1.93;1.90;;;;;;;;;;5096483;28;20201;-90
2023/01/24 02:58:27;;;;;;;5.63;4.93;;;;;;;;;;5078686;28;20201;-90
2023/01/24 03:00:55;;;;;;;7.73;4.47;;;;;;;;;;5096611;28;20201;-90
2023/01/24 03:03:24;;;;;;;6.00;4.17;;;;;;;;;;5078187;28;20217;-90
2023/01/24 03:05:57;;;;;;;5.40;3.80;;;;;;;;;;5078428;28;20246;-91
2023/01/24 03:08:25;;;;;;;4.73;3.53;;;;;;;;;;5112186;28;20201;-90
2023/01/24 03:10:54;;;;;;;7.30;5.30;;;;;;;;;;5112421;28;20219;-90
2023/01/24 03:35:34;;;;;;;8.73;7.37;;;;;;;;;;5077972;28;20250;-90
2023/01/24 03:40:52;;;;;;;11.93;10.20;;;;;;;;;;5111780;28;20223;-90
2023/01/24 03:43:21;;;;;;;11.00;7.33;;;;;;;;;;5077616;28;20223;-89
2023/01/24 03:45:53;;;;;;;7.13;5.17;;;;;;;;;;5111421;28;20201;-90
2023/01/24 03:48:26;;;;;;;5.80;4.57;;;;;;;;;;5077271;28;20207;-90
2023/01/24 03:53:41;;;;;;;3.93;3.00;;;;;;;;;;5111211;28;20204;-89
2023/01/24 03:56:09;;;;;;;4.77;4.30;;;;;;;;;;5095113;28;20253;-90
2023/01/24 03:58:38;;;;;;;1.90;1.83;;;;;;;;;;5095246;28;20196;-91
2023/01/24 04:01:06;;;;;;;10.40;7.30;;;;;;;;;;5110973;28;20196;-90
2023/01/24 04:03:36;;;;;;;6.87;5.10;;;;;;;;;;5077361;28;20253;-90
2023/01/24 04:06:04;;;;;;;2.93;2.73;;;;;;;;;;5077098;28;20246;-90
2023/01/24 04:08:33;;;;;;;1.93;1.93;;;;;;;;;;5110829;28;20325;-89
2023/01/24 04:11:01;;;;;;;11.90;7.57;;;;;;;;;;5110787;28;20250;-90
2023/01/24 04:13:30;;;;;;;4.47;4.07;;;;;;;;;;5110872;28;20196;-90
2023/01/24 04:15:58;;;;;;;12.30;8.17;;;;;;;;;;5110792;28;20197;-90
2023/01/24 04:18:26;;;;;;;2.07;1.87;;;;;;;;;;5076953;28;20200;-90
2023/01/24 04:20:56;;;;;;;5.00;3.37;;;;;;;;;;5076853;28;20205;-90
2023/01/24 04:23:25;;;;;;;6.53;5.90;;;;;;;;;;5110540;28;20217;-90
2023/01/24 04:25:56;;;;;;;7.07;5.97;;;;;;;;;;5076747;28;20296;-90
2023/01/24 04:28:25;;;;;;;1.67;1.60;;;;;;;;;;5094768;28;20209;-90
2023/01/24 04:30:58;;;;;;;9.10;6.50;;;;;;;;;;5094876;28;20197;-88
2023/01/24 04:33:27;;;;;;;8.33;6.13;;;;;;;;;;5110650;28;20207;-91
2023/01/24 04:35:59;;;;;;;16.63;12.13;;;;;;;;;;5076579;28;20204;-90
2023/01/24 04:38:27;;;;;;;14.50;11.33;;;;;;;;;;5076278;28;20188;-90
2023/01/24 04:41:00;;;;;;;9.00;7.13;;;;;;;;;;5076841;28;20208;-90
2023/01/24 04:43:29;;;;;;;8.87;7.27;;;;;;;;;;5094531;28;20212;-89
2023/01/24 04:45:57;;;;;;;4.47;3.90;;;;;;;;;;5076473;28;20208;-89
2023/01/24 04:48:26;;;;;;;6.50;5.07;;;;;;;;;;5110201;28;20208;-90
2023/01/24 04:51:00;;;;;;;10.73;7.60;;;;;;;;;;5076400;28;20213;-89
2023/01/24 04:53:29;;;;;;;8.67;6.43;;;;;;;;;;5110278;28;20197;-90
2023/01/24 04:56:01;;;;;;;4.10;3.67;;;;;;;;;;5094448;28;20256;-89
2023/01/24 04:58:30;;;;;;;4.90;4.47;;;;;;;;;;5094509;28;20284;-91
2023/01/24 05:00:58;;;;;;;9.10;7.40;;;;;;;;;;5094252;28;20201;-90
2023/01/24 05:03:28;;;;;;;4.57;4.07;;;;;;;;;;5076330;28;20239;-89
2023/01/24 05:05:56;;;;;;;7.33;6.43;;;;;;;;;;5093954;28;20216;-90
2023/01/24 05:08:26;;;;;;;7.10;5.40;;;;;;;;;;5094350;28;20208;-89
2023/01/24 05:10:55;;;;;;;7.27;6.40;;;;;;;;;;5094005;28;20215;-89
2023/01/24 05:13:23;;;;;;;6.33;3.60;;;;;;;;;;5076259;28;20250;-89
2023/01/24 05:15:52;;;;;;;11.47;8.83;;;;;;;;;;5094093;28;20204;-89
2023/01/24 05:18:21;;;;;;;7.40;6.07;;;;;;;;;;5076027;28;20228;-90
2023/01/24 05:20:49;;;;;;;12.10;8.97;;;;;;;;;;5094040;28;20195;-89
2023/01/24 05:23:18;;;;;;;9.00;7.37;;;;;;;;;;5075587;28;20216;-90
2023/01/24 05:25:47;;;;;;;9.30;6.37;;;;;;;;;;5093704;28;20197;-90
2023/01/24 05:28:16;;;;;;;3.90;3.53;;;;;;;;;;5075960;28;20258;-90
2023/01/24 05:30:44;;;;;;;10.97;6.87;;;;;;;;;;5109763;28;20192;-89
2023/01/24 05:33:13;;;;;;;8.03;6.67;;;;;;;;;;5109881;28;20197;-90
2023/01/24 05:35:43;;;;;;;8.40;6.33;;;;;;;;;;5075710;28;20205;-89
2023/01/24 05:38:11;;;;;;;12.00;9.37;;;;;;;;;;5109819;28;20211;-90
2023/01/24 05:40:40;;;;;;;10.33;8.67;;;;;;;;;;5093782;28;20212;-89
2023/01/24 05:43:09;;;;;;;6.30;5.10;;;;;;;;;;5093959;28;20338;-89
2023/01/24 05:45:38;;;;;;;3.97;2.90;;;;;;;;;;5109818;28;20208;-90
2023/01/24 05:48:07;;;;;;;9.13;7.93;;;;;;;;;;5075755;28;20210;-90
2023/01/24 05:50:35;;;;;;;8.23;6.53;;;;;;;;;;5077063;28;20250;-90
2023/01/24 05:53:03;;;;;;;8.33;6.83;;;;;;;;;;5113647;28;20195;-90
2023/01/24 05:55:32;;;;;;;12.83;10.07;;;;;;;;;;5113742;28;20192;-89
2023/01/24 05:58:00;;;;;;;5.57;5.00;;;;;;;;;;5079497;28;20197;-90
2023/01/24 06:00:30;;;;;;;8.23;6.90;;;;;;;;;;5113739;28;20262;-90
2023/01/24 06:03:02;;;;;;;9.03;7.77;;;;;;;;;;5079203;28;20216;-90
2023/01/24 06:05:31;;;;;;;8.27;5.33;;;;;;;;;;5079472;28;20228;-89
2023/01/24 06:07:59;;;;;;;10.53;7.67;;;;;;;;;;5080304;28;20200;-89
2023/01/24 06:10:28;;;;;;;8.97;6.07;;;;;;;;;;5097469;28;20276;-89
2023/01/24 06:12:56;;;;;;;7.47;4.97;;;;;;;;;;5097572;28;20201;-90
2023/01/24 06:15:24;;;;;;;12.80;10.90;;;;;;;;;;5097377;28;20250;-90
2023/01/24 06:17:54;;;;;;;10.40;7.77;;;;;;;;;;5079746;28;20204;-90
2023/01/24 06:20:23;;;;;;;12.33;7.70;;;;;;;;;;5113546;28;20269;-90
2023/01/24 06:22:53;;;;;;;11.03;8.33;;;;;;;;;;5097516;28;20203;-89
2023/01/24 06:25:22;;;;;;;7.63;6.70;;;;;;;;;;5112832;28;20231;-90
2023/01/24 06:27:52;;;;;;;18.90;12.93;;;;;;;;;;5079173;28;20206;-89
2023/01/24 06:30:20;;;;;;;15.70;10.93;;;;;;;;;;5079367;28;20189;-89
2023/01/24 06:33:02;;;;;;;12.10;9.00;;;;;;;;;;5079338;28;20205;-88
2023/01/24 06:35:34;;;;;;;6.50;5.30;;;;;;;;;;5113058;28;20207;-90
2023/01/24 06:38:03;;;;;;;18.93;12.43;;;;;;;;;;5079181;28;20290;-89
2023/01/24 06:40:31;;;;;;;9.00;6.13;;;;;;;;;;5096979;28;20256;-89
2023/01/24 06:43:00;;;;;;;11.60;6.60;;;;;;;;;;5096981;28;20231;-90
2023/01/24 06:45:28;;;;;;;10.13;7.07;;;;;;;;;;5112444;28;20223;-89
2023/01/24 06:47:58;;;;;;;12.40;9.33;;;;;;;;;;5112380;28;20210;-90
2023/01/24 06:50:31;;;;;;;11.17;9.07;;;;;;;;;;5096927;28;20264;-92
2023/01/24 06:52:59;;;;;;;7.00;4.80;;;;;;;;;;5112705;28;20374;-92
2023/01/24 06:55:28;;;;;;;10.40;8.17;;;;;;;;;;5078752;28;20192;-92
2023/01/24 06:57:57;;;;;;;10.50;8.37;;;;;;;;;;5112471;28;20197;-87
2023/01/24 07:00:25;;;;;;;13.90;11.90;;;;;;;;;;5112512;28;20211;-91
2023/01/24 07:03:02;;;;;;;14.43;8.90;;;;;;;;;;5078513;28;20264;-92
2023/01/24 07:05:31;;;;;;;11.67;9.40;;;;;;;;;;5078286;28;20224;-91
2023/01/24 07:07:59;;;;;;;7.43;6.57;;;;;;;;;;5078548;28;20204;-92
2023/01/24 07:10:28;;;;;;;5.50;4.23;;;;;;;;;;5078180;28;20197;-90
2023/01/24 07:12:57;;;;;;;8.83;7.27;;;;;;;;;;5112477;28;20300;-91
2023/01/24 07:15:25;;;;;;;10.33;7.93;;;;;;;;;;5096528;28;20228;-91
2023/01/24 07:17:54;;;;;;;16.97;11.77;;;;;;;;;;5097010;28;20239;-90
2023/01/24 07:20:24;;;;;;;12.97;10.00;;;;;;;;;;5095908;28;20238;-90
2023/01/24 07:22:53;;;;;;;12.97;8.43;;;;;;;;;;5078372;28;20205;-90
2023/01/24 07:25:22;;;;;;;11.23;9.10;;;;;;;;;;5096806;28;20245;-89
2023/01/24 07:27:51;;;;;;;6.37;5.67;;;;;;;;;;5112306;28;20197;-89
2023/01/24 07:30:19;;;;;;;4.00;3.63;;;;;;;;;;5111683;28;20256;-89
2023/01/24 07:32:48;;;;;;;10.67;9.13;;;;;;;;;;5095499;28;20219;-88
2023/01/24 07:35:16;;;;;;;8.33;7.13;;;;;;;;;;5110890;28;20207;-89
2023/01/24 07:37:46;;;;;;;8.70;6.13;;;;;;;;;;5111154;28;20193;-89
2023/01/24 07:40:14;;;;;;;12.33;6.57;;;;;;;;;;5111578;28;20253;-89
2023/01/24 07:42:43;;;;;;;9.87;7.47;;;;;;;;;;5077488;28;20236;-88
2023/01/24 07:45:12;;;;;;;17.30;13.67;;;;;;;;;;5077503;28;20220;-88
2023/01/24 07:47:40;;;;;;;18.13;13.30;;;;;;;;;;5077825;28;20209;-88
2023/01/24 07:50:09;;;;;;;14.30;10.43;;;;;;;;;;5077491;28;20200;-89
2023/01/24 07:52:38;;;;;;;7.50;4.63;;;;;;;;;;5077334;28;20196;-88
2023/01/24 07:55:08;;;;;;;16.03;12.00;;;;;;;;;;5077228;28;20232;-88
2023/01/24 07:57:37;;;;;;;16.80;10.63;;;;;;;;;;5077274;28;20193;-88
2023/01/24 08:00:05;;;;;;;8.90;7.60;;;;;;;;;;5077219;28;20207;-88
2023/01/24 08:02:34;;;;;;;6.70;5.70;;;;;;;;;;5077116;28;20299;-88
2023/01/24 08:05:02;;;;;;;18.37;12.30;;;;;;;;;;5110605;28;20211;-88
2023/01/24 08:07:31;;;;;;;16.43;10.63;;;;;;;;;;5076912;28;20233;-88
2023/01/24 08:09:59;;;;;;;11.93;9.57;;;;;;;;;;5077312;28;20196;-88
2023/01/24 08:12:29;;;;;;;18.30;12.67;;;;;;;;;;5094670;28;20206;-88
2023/01/24 08:14:57;;;;;;;14.70;11.27;;;;;;;;;;5076538;28;20195;-88
2023/01/24 08:17:26;;;;;;;16.87;12.53;;;;;;;;;;5076792;28;20207;-88
2023/01/24 08:19:54;;;;;;;12.57;9.37;;;;;;;;;;5076535;28;20234;-88
2023/01/24 08:22:25;;;;;;;17.83;12.03;;;;;;;;;;5076718;28;20208;-88
2023/01/24 08:24:53;;;;;;;9.70;6.47;;;;;;;;;;5076503;28;20221;-88
2023/01/24 08:27:22;;;;;;;7.53;6.57;;;;;;;;;;5094855;28;20198;-88
2023/01/24 08:29:52;;;;;;;17.03;11.57;;;;;;;;;;5094605;28;20223;-88
2023/01/24 08:32:20;;;;;;;8.40;6.73;;;;;;;;;;5076794;28;20211;-88
2023/01/24 08:34:49;;;;;;;8.47;6.33;;;;;;;;;;5076229;28;20209;-88
2023/01/24 08:37:18;;;;;;;19.10;8.77;;;;;;;;;;5094769;28;20197;-88
2023/01/24 08:39:46;;;;;;;10.37;9.30;;;;;;;;;;5076301;28;20203;-88
2023/01/24 08:42:15;;;;;;;10.73;6.63;;;;;;;;;;5110463;28;20220;-88
2023/01/24 08:44:55;;;;;;;5.23;4.77;;;;;;;;;;5067331;28;20202;-87
2023/01/24 08:47:23;;;;;;;4.97;3.77;;;;;;;;;;5068943;28;20200;-87
2023/01/24 08:49:54;;;;;;;9.03;6.20;;;;;;;;;;5066543;28;20211;-88
2023/01/24 08:52:22;;;;;;;7.70;7.00;;;;;;;;;;5086210;28;20214;-86
2023/01/24 08:54:51;;;;;;;9.87;8.10;;;;;;;;;;5065918;28;20218;-90
2023/01/24 08:57:19;;;;;;;10.27;8.70;;;;;;;;;;5067363;28;20279;-85
2023/01/24 08:59:48;;;;;;;9.20;7.75;;;;;;;;;;5059737;28;20584;-87
2023/01/24 09:02:17;;;;;;;11.60;7.50;;;;;;;;;;5074870;28;20208;-85
2023/01/24 09:04:46;;;;;;;7.57;4.80;;;;;;;;;;5066664;28;20196;-85
2023/01/24 09:07:14;;;;;;;15.03;9.93;;;;;;;;;;5055485;28;20232;-83
2023/01/24 09:09:44;;;;;;;18.20;11.33;;;;;;;;;;5081544;28;20433;-87
2023/01/24 09:12:13;;;;;;;6.00;5.40;;;;;;;;;;5065235;28;20204;-85
2023/01/24 09:14:41;;;;;;;14.47;11.20;;;;;;;;;;5061715;28;20202;-87
2023/01/24 09:17:10;;;;;;;12.43;8.10;;;;;;;;;;5062915;28;20294;-86
2023/01/24 09:19:40;;;;;;;18.90;11.27;;;;;;;;;;5067745;28;20296;-86
2023/01/24 09:22:08;;;;;;;10.17;5.93;;;;;;;;;;5065415;28;20207;-85
2023/01/24 09:24:37;;;;;;;16.87;11.90;;;;;;;;;;5058130;28;20208;-86
2023/01/24 09:27:05;;;;;;;16.50;10.93;;;;;;;;;;5067105;28;20238;-86
2023/01/24 09:29:33;;;;;;;15.03;8.77;;;;;;;;;;5072632;28;20210;-88
2023/01/24 09:32:04;;;;;;;10.27;7.83;;;;;;;;;;5081321;28;20230;-87
2023/01/24 09:34:32;;;;;;;9.63;7.70;;;;;;;;;;5064642;28;20210;-90
2023/01/24 09:37:02;;;;;;;10.80;8.30;;;;;;;;;;5063672;28;20209;-89
2023/01/24 09:39:31;;;;;;;10.00;6.83;;;;;;;;;;5090602;28;20205;-92
2023/01/24 09:42:02;;;;;;;7.03;6.10;;;;;;;;;;5067523;28;20196;-89
2023/01/24 09:44:41;;;;;;;8.70;6.27;;;;;;;;;;5069607;28;20203;-88
2023/01/24 09:47:30;;;;;;;5.63;5.20;;;;;;;;;;5069591;28;20209;-90
2023/01/24 09:50:00;;;;;;;16.13;10.80;;;;;;;;;;5075857;28;20199;-92
2023/01/24 09:52:32;;;;;;;11.03;7.57;;;;;;;;;;5066868;28;20204;-91
2023/01/24 09:55:07;;;;;;;8.23;5.93;;;;;;;;;;5070357;28;20212;-89
2023/01/24 09:57:39;;;;;;;12.47;8.73;;;;;;;;;;5066769;28;20213;-91
2023/01/24 10:00:15;;;;;;;9.00;6.03;;;;;;;;;;5061974;28;20241;-91
2023/01/24 10:02:43;;;;;;;11.63;9.43;;;;;;;;;;5084701;28;20262;-92
2023/01/24 10:05:14;;;;;;;8.27;6.67;;;;;;;;;;5067410;28;20213;-88
2023/01/24 10:08:02;;;;;;;8.07;4.60;;;;;;;;;;5067792;28;20247;-88
2023/01/24 10:10:41;;;;;;;9.23;6.33;;;;;;;;;;5066832;28;20209;-90
2023/01/24 10:13:14;;;;;;;9.53;7.23;;;;;;;;;;5064569;28;20289;-89
2023/01/24 10:15:47;;;;;;;7.83;7.03;;;;;;;;;;5066408;28;20212;-92
2023/01/24 10:18:31;;;;;;;11.60;8.70;;;;;;;;;;5066547;28;20195;-92
2023/01/24 10:21:11;;;;;;;7.23;5.10;;;;;;;;;;5068161;28;20323;-87
2023/01/24 10:23:42;;;;;;;12.03;8.17;;;;;;;;;;5073253;28;20196;-92
2023/01/24 10:26:18;;;;;;;14.30;10.37;;;;;;;;;;5078714;28;20222;-91
2023/01/24 10:28:49;;;;;;;9.77;6.73;;;;;;;;;;5068881;28;20222;-88
2023/01/24 10:31:19;;;;;;;9.17;8.20;;;;;;;;;;5060447;28;20197;-90
2023/01/24 10:33:49;;;;;;;4.63;3.90;;;;;;;;;;5066251;28;20211;-87
2023/01/24 10:36:21;;;;;;;9.63;6.93;;;;;;;;;;5055180;28;20201;-90
2023/01/24 10:38:50;;;;;;;6.53;4.80;;;;;;;;;;5064921;28;20406;-88
2023/01/24 10:41:21;;;;;;;10.70;9.43;;;;;;;;;;5068202;28;20205;-90
2023/01/24 10:43:53;;;;;;;8.30;6.40;;;;;;;;;;5089409;28;20211;-87
2023/01/24 10:46:33;;;;;;;4.03;3.67;;;;;;;;;;5071858;28;20224;-85
2023/01/24 10:49:02;;;;;;;12.93;9.27;;;;;;;;;;5074388;28;20208;-90
2023/01/24 10:51:33;;;;;;;4.63;2.97;;;;;;;;;;5065613;28;20296;-90
2023/01/24 10:54:04;;;;;;;11.57;9.17;;;;;;;;;;5075182;28;20197;-88
2023/01/24 10:56:39;;;;;;;7.87;6.20;;;;;;;;;;5062223;28;20197;-89
2023/01/24 10:59:08;;;;;;;10.27;7.47;;;;;;;;;;5067565;28;20260;-92
2023/01/24 11:01:38;;;;;;;16.00;11.10;;;;;;;;;;5087420;28;20197;-90
2023/01/24 11:04:14;;;;;;;9.10;6.50;;;;;;;;;;5083454;28;20204;-85
2023/01/24 11:06:46;;;;;;;10.13;8.00;;;;;;;;;;5062653;28;20234;-90
2023/01/24 11:09:19;;;;;;;12.80;10.77;;;;;;;;;;5067256;28;20266;-88
2023/01/24 11:11:50;;;;;;;8.00;4.93;;;;;;;;;;5066309;28;20255;-89
2023/01/24 11:14:21;;;;;;;9.87;7.00;;;;;;;;;;5066603;28;20205;-90
2023/01/24 11:16:52;;;;;;;6.57;4.93;;;;;;;;;;5066273;28;20193;-88
2023/01/24 11:19:26;;;;;;;7.80;5.93;;;;;;;;;;5062694;28;20209;-88
2023/01/24 11:21:56;;;;;;;9.80;6.17;;;;;;;;;;5079455;28;20208;-92
2023/01/24 11:24:26;;;;;;;10.03;8.27;;;;;;;;;;5083902;28;20211;-87
2023/01/24 11:26:57;;;;;;;10.90;8.50;;;;;;;;;;5064210;28;20304;-90
2023/01/24 11:29:26;;;;;;;5.07;4.60;;;;;;;;;;5066495;28;20196;-89
2023/01/24 11:31:57;;;;;;;8.20;4.77;;;;;;;;;;5061215;28;20205;-90
2023/01/24 11:34:36;;;;;;;8.43;7.53;;;;;;;;;;5063884;28;20204;-87
2023/01/24 11:37:17;;;;;;;6.83;4.63;;;;;;;;;;5083677;28;20207;-84
2023/01/24 11:39:53;;;;;;;4.23;3.67;;;;;;;;;;5065240;28;20194;-86
2023/01/24 11:42:28;;;;;;;11.13;7.73;;;;;;;;;;5074605;28;20197;-88
2023/01/24 11:45:09;;;;;;;7.60;6.40;;;;;;;;;;5089056;28;20196;-84
2023/01/24 11:47:38;;;;;;;4.43;4.03;;;;;;;;;;5059090;28;20220;-86
2023/01/24 11:50:20;;;;;;;8.93;8.07;;;;;;;;;;5068345;28;20193;-87
2023/01/24 11:53:03;;;;;;;7.27;5.07;;;;;;;;;;5079004;28;20542;-89
2023/01/24 11:55:39;;;;;;;12.57;8.53;;;;;;;;;;5082416;28;20208;-87
2023/01/24 11:58:23;;;;;;;11.77;9.57;;;;;;;;;;5067131;28;20256;-91
2023/01/24 12:00:57;;;;;;;16.37;10.10;;;;;;;;;;5062954;28;20205;-89
2023/01/24 12:03:39;;;;;;;11.20;8.47;;;;;;;;;;5082914;28;20203;-85
2023/01/24 12:06:11;;;;;;;7.27;6.27;;;;;;;;;;5080206;28;20232;-88
2023/01/24 12:08:50;;;;;;;9.33;7.80;;;;;;;;;;5064587;28;20216;-86
2023/01/24 12:11:23;;;;;;;8.97;7.20;;;;;;;;;;5082507;28;20262;-84
2023/01/24 12:14:20;;;;;;;7.07;5.87;;;;;;;;;;5069246;28;20196;-86
2023/01/24 12:16:54;;;;;;;3.37;3.07;;;;;;;;;;5066829;28;20280;-85
2023/01/24 12:19:43;;;;;;;9.50;7.13;;;;;;;;;;5063764;28;20258;-87
2023/01/24 12:22:14;;;;;;;11.57;7.30;;;;;;;;;;5037316;28;20218;-85
2023/01/24 12:24:45;;;;;;;7.93;5.60;;;;;;;;;;5084567;28;20189;-88
2023/01/24 12:27:18;;;;;;;6.73;6.13;;;;;;;;;;5076666;28;20220;-90
2023/01/24 12:29:54;;;;;;;7.47;5.87;;;;;;;;;;5068941;28;20212;-86
2023/01/24 12:32:24;;;;;;;13.93;10.10;;;;;;;;;;5059936;28;20203;-88
2023/01/24 12:34:56;;;;;;;11.93;8.83;;;;;;;;;;5060391;28;20216;-88
2023/01/24 12:37:27;;;;;;;8.10;5.90;;;;;;;;;;5078573;28;20197;-86
2023/01/24 12:40:01;;;;;;;6.63;5.13;;;;;;;;;;5061969;28;20207;-87
2023/01/24 12:42:40;;;;;;;13.07;9.60;;;;;;;;;;5062671;28;20271;-86
2023/01/24 12:45:15;;;;;;;13.63;10.77;;;;;;;;;;5066296;28;20228;-87
2023/01/24 12:47:47;;;;;;;9.50;6.70;;;;;;;;;;5061545;28;20304;-86
2023/01/24 12:50:20;;;;;;;6.77;6.07;;;;;;;;;;5063569;28;20213;-87
2023/01/24 12:52:54;;;;;;;7.30;5.67;;;;;;;;;;5057740;28;20205;-86
2023/01/24 12:55:25;;;;;;;8.13;5.60;;;;;;;;;;5078021;28;20247;-88
2023/01/24 12:58:00;;;;;;;10.93;8.43;;;;;;;;;;5066501;28;20200;-87
2023/01/24 13:00:33;;;;;;;4.17;3.87;;;;;;;;;;5081070;28;20234;-85
2023/01/24 13:03:08;;;;;;;5.30;4.63;;;;;;;;;;5066094;28;20212;-85
2023/01/24 13:05:44;;;;;;;6.03;5.07;;;;;;;;;;5081428;28;20216;-86
2023/01/24 13:08:20;;;;;;;4.70;3.93;;;;;;;;;;5063357;28;20211;-87
2023/01/24 13:10:58;;;;;;;10.73;7.13;;;;;;;;;;5079879;28;20198;-87
2023/01/24 13:13:33;;;;;;;8.40;6.97;;;;;;;;;;5078746;28;20192;-86
2023/01/24 13:16:06;;;;;;;6.13;5.03;;;;;;;;;;5082699;28;20228;-86
2023/01/24 13:18:47;;;;;;;10.10;7.43;;;;;;;;;;5070237;28;20223;-86
2023/01/24 13:21:21;;;;;;;9.50;5.13;;;;;;;;;;5047807;28;20238;-83
2023/01/24 13:24:00;;;;;;;7.13;5.23;;;;;;;;;;5040824;28;20210;-84
2023/01/24 13:26:36;;;;;;;4.97;4.57;;;;;;;;;;5038931;28;20357;-85
2023/01/24 13:29:16;;;;;;;9.67;7.63;;;;;;;;;;5041459;28;20225;-85
2023/01/24 13:31:51;;;;;;;7.23;6.03;;;;;;;;;;5038213;28;20267;-84
2023/01/24 13:34:23;;;;;;;16.40;6.83;;;;;;;;;;5040996;28;20291;-85
2023/01/24 13:36:54;;;;;;;12.13;9.53;;;;;;;;;;5040073;28;20238;-86
2023/01/24 13:39:34;;;;;;;8.10;7.27;;;;;;;;;;5042656;28;20207;-85
2023/01/24 13:42:04;;;;;;;11.73;8.23;;;;;;;;;;5041762;28;20198;-85
2023/01/24 13:44:35;;;;;;;6.97;6.27;;;;;;;;;;5043123;28;20202;-84
2023/01/24 13:47:06;;;;;;;8.50;5.80;;;;;;;;;;5041499;28;20202;-84
2023/01/24 13:49:40;;;;;;;9.03;8.07;;;;;;;;;;5036938;28;20225;-84
2023/01/24 13:52:29;;;;;;;7.33;6.43;;;;;;;;;;5040668;28;20275;-85
2023/01/24 13:54:58;;;;;;;6.63;5.03;;;;;;;;;;5052888;28;20214;-85
2023/01/24 13:57:27;;;;;;;3.43;3.23;;;;;;;;;;5043515;28;20213;-85
2023/01/24 14:00:03;;;;;;;11.90;8.80;;;;;;;;;;5049965;28;20300;-84
2023/01/24 14:02:35;;;;;;;11.97;10.40;;;;;;;;;;5039907;28;20206;-85
2023/01/24 14:05:22;;;;;;;3.93;3.53;;;;;;;;;;5037201;28;20245;-85
2023/01/24 14:07:51;;;;;;;5.87;4.63;;;;;;;;;;5039282;28;20197;-86
2023/01/24 14:10:33;;;;;;;9.83;7.87;;;;;;;;;;5041877;28;20215;-85
2023/01/24 14:13:02;;;;;;;17.10;12.97;;;;;;;;;;5047610;28;20202;-86
2023/01/24 14:15:39;;;;;;;3.07;2.67;;;;;;;;;;5040122;28;20295;-84
2023/01/24 14:18:38;;;;;;;8.97;7.47;;;;;;;;;;5045261;28;20215;-85
2023/01/24 14:21:14;;;;;;;17.83;12.00;;;;;;;;;;5071671;28;20232;-85
2023/01/24 14:23:43;;;;;;;13.60;9.73;;;;;;;;;;5066087;28;20209;-85
2023/01/24 14:26:14;;;;;;;12.23;10.10;;;;;;;;;;5085630;28;20205;-85
2023/01/24 14:28:47;;;;;;;15.40;11.30;;;;;;;;;;5081727;28;20215;-84
2023/01/24 14:31:21;;;;;;;18.87;14.17;;;;;;;;;;5062719;28;20197;-84
2023/01/24 14:33:53;;;;;;;3.53;3.40;;;;;;;;;;5064814;28;20252;-84
2023/01/24 14:36:23;;;;;;;7.37;5.80;;;;;;;;;;5073090;28;20239;-83
2023/01/24 14:39:06;;;;;;;16.83;11.40;;;;;;;;;;5071468;28;20235;-84
2023/01/24 14:41:35;;;;;;;18.73;9.30;;;;;;;;;;5067506;28;20211;-86
2023/01/24 14:44:04;;;;;;;13.43;11.07;;;;;;;;;;5089347;28;20228;-87
2023/01/24 14:46:34;;;;;;;12.47;8.83;;;;;;;;;;5087355;28;20201;-84
2023/01/24 14:49:13;;;;;;;15.43;11.90;;;;;;;;;;5074504;28;20236;-86
2023/01/24 14:51:45;;;;;;;13.87;11.07;;;;;;;;;;5088562;28;20197;-87
2023/01/24 14:54:20;;;;;;;15.70;11.43;;;;;;;;;;5084754;28;20203;-87
2023/01/24 14:56:49;;;;;;;2.57;2.40;;;;;;;;;;5072235;28;20200;-85
2023/01/24 14:59:18;;;;;;;13.63;9.83;;;;;;;;;;5073157;28;20200;-82
2023/01/24 15:01:51;;;;;;;6.73;5.73;;;;;;;;;;5072659;28;20201;-82
2023/01/24 15:04:23;;;;;;;13.50;9.80;;;;;;;;;;5066433;28;20216;-82
2023/01/24 15:07:05;;;;;;;6.70;3.77;;;;;;;;;;5070220;28;20289;-82
2023/01/24 15:09:33;;;;;;;15.03;12.10;;;;;;;;;;5068258;28;20241;-85
2023/01/24 15:12:15;;;;;;;9.37;7.63;;;;;;;;;;5063447;28;20212;-86
2023/01/24 15:14:50;;;;;;;5.17;4.77;;;;;;;;;;5075672;28;20324;-84
2023/01/24 15:17:24;;;;;;;16.20;11.10;;;;;;;;;;5071112;28;20193;-84
2023/01/24 15:19:56;;;;;;;17.17;10.50;;;;;;;;;;5075502;28;20193;-82
2023/01/24 15:22:27;;;;;;;9.97;7.97;;;;;;;;;;5075151;28;20311;-84
2023/01/24 15:24:56;;;;;;;15.50;11.10;;;;;;;;;;5075711;28;20200;-84
2023/01/24 15:27:38;;;;;;;17.27;13.17;;;;;;;;;;5074847;28;20207;-83
2023/01/24 15:30:15;;;;;;;16.13;10.30;;;;;;;;;;5075310;28;20238;-83
2023/01/24 15:32:46;;;;;;;17.40;9.93;;;;;;;;;;5071932;28;20209;-83
2023/01/24 15:35:28;;;;;;;12.70;8.37;;;;;;;;;;5087915;28;20229;-84
2023/01/24 15:38:20;;;;;;;11.60;9.20;;;;;;;;;;5069691;28;20210;-84